Flight Track Log - Related Links

Times and Time Zones

All times are in EDT time to prevent confusion due to time zone crossing. See the DAL1388 flight status page for this flight to view local times or setup timezone preferences in your user account.

Time Position Orientation Groundspeed Altitude Reporting Facility
EDT Latitude Longitude Course Direction KTS MPH feet Rate Location/Type
Thu 05:26:23 PM 35.3644 -97.5942 163° South 180 207 2,200  Level Fort Worth Center
Thu 05:27:26 PM 35.3039 -97.5714 163° South 210 242 4,300 2,683 Climbing Fort Worth Center
Thu 05:28:26 PM 35.2936 -97.4772 98° East 209 241 7,700 3,000 Climbing Fort Worth Center
Thu 05:29:26 PM 35.3061 -97.3933 80° East 239 275 10,300 2,400 Climbing Fort Worth Center
Thu 05:30:26 PM 35.3144 -97.2686 85° East 299 344 12,500 2,050 Climbing Fort Worth Center
Thu 05:31:26 PM 35.3119 -97.1236 91° East 339 390 14,400 2,000 Climbing Fort Worth Center
Thu 05:32:26 PM 35.3136 -96.9836 89° East 377 434 16,500 2,250 Climbing Fort Worth Center
Thu 05:33:26 PM 35.3172 -96.8386 88° East 409 471 18,900 1,950 Climbing Fort Worth Center
Thu 05:34:26 PM 35.3292 -96.6883 84° East 428 493 20,400 1,600 Climbing Fort Worth Center
Thu 05:35:26 PM 35.3364 -96.5356 87° East 440 506 22,100 1,600 Climbing Fort Worth Center
Thu 05:36:26 PM 35.3414 -96.3753 88° East 453 521 23,600 1,250 Climbing Fort Worth Center
Thu 05:37:26 PM 35.3464 -96.2122 92° East 472 543 24,600 1,150 Climbing Fort Worth Center
Thu 05:38:26 PM 35.3508 -96.0442 88° East 485 558 25,900 1,600 Climbing Fort Worth Center
Thu 05:39:26 PM 35.3550 -95.8736 88° East 491 565 27,800 1,581 Climbing Fort Worth Center
Thu 05:41:32 PM 35.3667 -95.5461 87° East 492 566 30,800 1,032 Climbing Memphis Center
Thu 05:42:32 PM 35.3692 -95.3806 89° East 492 566 31,000 100 Climbing Memphis Center
Thu 05:43:32 PM 35.3717 -95.2178 89° East 487 560 31,000  Level Memphis Center
Thu 05:44:32 PM 35.3736 -95.0525 89° East 482 555 31,000  Level Memphis Center
Thu 05:45:32 PM 35.3675 -94.8842 93° East 482 555 31,000  Level Memphis Center
Thu 05:46:32 PM 35.3589 -94.7131 93° East 487 560 31,000  Level Memphis Center
Thu 05:47:32 PM 35.3503 -94.5394 93° East 499 574 31,000  Level Memphis Center
Thu 05:48:32 PM 35.3414 -94.3711 94° East 504 580 31,000  Level Memphis Center
Thu 05:49:32 PM 35.3339 -94.2053 93° East 499 574 31,000  Level Memphis Center
Thu 05:50:32 PM 35.3244 -94.0344 94° East 499 574 31,000  Level Memphis Center
Thu 05:51:32 PM 35.3125 -93.8683 95° East 499 574 31,000  Level Memphis Center
Thu 05:52:32 PM 35.3028 -93.7000 94° East 499 574 31,000  Level Memphis Center
Thu 05:53:32 PM 35.2925 -93.5292 94° East 499 574 31,000  Level Memphis Center
Thu 05:54:32 PM 35.2803 -93.3456 95° East 499 574 31,000  Level Memphis Center
Thu 05:55:32 PM 35.2753 -93.2081 93° East 479 551 31,000  Level Memphis Center
Thu 05:56:32 PM 35.2642 -93.0450 95° East 479 551 31,000  Level Memphis Center
Thu 05:57:32 PM 35.2492 -92.8667 96° East 485 558 31,000  Level Memphis Center
Thu 05:58:32 PM 35.2414 -92.7267 94° East 485 558 31,000  Level Memphis Center
Thu 05:59:32 PM 35.2261 -92.5431 96° East 485 558 31,000  Level Memphis Center
Thu 06:00:32 PM 35.2142 -92.3853 95° East 480 552 31,000  Level Memphis Center
Thu 06:01:32 PM 35.2003 -92.2069 95° East 480 552 31,000  Level Memphis Center
Thu 06:02:32 PM 35.1881 -92.0442 95° East 480 552 31,000  Level Memphis Center
Thu 06:03:32 PM 35.1775 -91.8864 95° East 480 552 31,000  Level Memphis Center
Thu 06:04:32 PM 35.1647 -91.7236 95° East 480 552 31,000  Level Memphis Center
Thu 06:05:32 PM 35.1517 -91.5633 96° East 480 552 31,000  Level Memphis Center
Thu 06:06:32 PM 35.1406 -91.4336 96° East 480 552 31,000  Level Memphis Center
Thu 06:07:32 PM 35.1294 -91.2583 94° East 480 552 31,000  Level Memphis Center
Thu 06:08:32 PM 35.1158 -91.0983 96° East 480 552 31,000  Level Memphis Center
Thu 06:09:32 PM 35.1042 -90.9333 95° East 480 552 31,000  Level Memphis Center
Thu 06:10:32 PM 35.0881 -90.7708 97° East 480 552 31,000  Level Memphis Center
Thu 06:11:32 PM 35.0719 -90.5931 96° East 480 552 31,000  Level Memphis Center
Thu 06:12:32 PM 35.0575 -90.4256 96° East 487 560 31,000  Level Memphis Center
Thu 06:13:32 PM 35.0406 -90.2606 97° East 487 560 31,000  Level Memphis Center
Thu 06:14:32 PM 35.0258 -90.0908 96° East 492 566 31,000  Level Memphis Center
Thu 06:15:32 PM 35.0086 -89.9286 97° East 497 572 31,000  Level Memphis Center
Thu 06:16:32 PM 34.9872 -89.7589 99° East 497 572 31,000  Level Memphis Center
Thu 06:17:32 PM 34.9633 -89.6044 101° East 514 592 31,000  Level Memphis Center
Thu 06:18:32 PM 34.9350 -89.4375 102° East 503 579 31,000 -400 Level Memphis Center
Thu 06:19:32 PM 34.9086 -89.2733 101° East 498 573 30,200 -700 Descending Memphis Center
Thu 06:20:32 PM 34.8819 -89.0939 100° East 493 567 29,600 -800 Descending Memphis Center
Thu 06:21:32 PM 34.8572 -88.9347 101° East 483 556 28,600 -950 Descending Memphis Center
Thu 06:22:32 PM 34.8322 -88.7733 101° East 483 556 27,700 -800 Descending Memphis Center
Thu 06:23:32 PM 34.8072 -88.6119 101° East 481 554 27,000 -350 Descending Memphis Center
Thu 06:24:32 PM 34.7819 -88.4608 101° East 481 554 27,000  Level Memphis Center
Thu 06:25:32 PM 34.7586 -88.3044 100° East 468 539 27,000  Level Memphis Center
Thu 06:26:32 PM 34.7331 -88.1408 101° East 476 548 27,000  Level Memphis Center
Thu 06:27:32 PM 34.7072 -87.9875 102° East 477 549 27,000  Level Memphis Center
Thu 06:28:32 PM 34.6833 -87.8342 101° East 466 536 27,000  Level Memphis Center
Thu 06:30:34 PM 34.6361 -87.5253 100° East 472 543 27,000  Level Atlanta Center
Thu 06:31:34 PM 34.6092 -87.3703 102° East 472 543 27,000  Level Atlanta Center
Thu 06:32:34 PM 34.5775 -87.2225 105° East 467 537 27,000  Level Atlanta Center
Thu 06:33:34 PM 34.5500 -87.0703 102° East 461 531 27,000  Level Atlanta Center
Thu 06:34:34 PM 34.5203 -86.9203 103° East 456 525 27,000  Level Atlanta Center
Thu 06:35:34 PM 34.4881 -86.7731 105° East 456 525 27,000  Level Atlanta Center
Thu 06:36:34 PM 34.4558 -86.6261 105° East 456 525 27,000  Level Atlanta Center
Thu 06:37:34 PM 34.4233 -86.4764 105° East 456 525 27,000  Level Atlanta Center
Thu 06:38:34 PM 34.3908 -86.3269 105° East 456 525 27,000  Level Atlanta Center
Thu 06:39:34 PM 34.3558 -86.1775 106° East 456 525 27,000  Level Atlanta Center
Thu 06:40:34 PM 34.3208 -86.0258 106° East 456 525 27,000  Level Atlanta Center
Thu 06:41:34 PM 34.2878 -85.8767 105° East 456 525 27,000 -450 Level Atlanta Center
Thu 06:42:34 PM 34.2544 -85.7328 106° East 456 525 26,100 -1,650 Descending Atlanta Center
Thu 06:43:34 PM 34.2186 -85.5836 106° East 456 525 23,700 -2,550 Descending Atlanta Center
Thu 06:44:34 PM 34.1869 -85.4425 105° East 451 519 21,000 -2,750 Descending Atlanta Center
Thu 06:45:34 PM 34.1550 -85.3039 106° East 438 504 18,200 -3,000 Descending Atlanta Center
Thu 06:46:34 PM 34.1211 -85.1656 106° East 433 498 15,000 -2,150 Descending Atlanta Center
Thu 06:47:34 PM 34.0844 -85.0294 108° East 428 493 13,900 -750 Descending Atlanta Center
Thu 06:48:34 PM 34.0122 -84.9233 129° Southeast 410 472 13,500 -700 Descending Atlanta Center
Thu 06:49:34 PM 33.9336 -84.8250 134° Southeast 402 463 12,500 -1,000 Descending Atlanta Center
Thu 06:50:28 PM 33.8667 -84.7333 131° Southeast 394 453 11,600 -789 Descending Atlanta TRACON
Thu 06:51:28 PM 33.7833 -84.6500 140° Southeast 362 417 11,000 -286 Descending Atlanta TRACON
Thu 06:52:34 PM 33.7333 -84.5667 126° Southeast 281 323 11,000 -333 Level Atlanta TRACON
Thu 06:53:34 PM 33.7333 -84.4667 90° East 256 295 10,300 -1,050 Descending Atlanta TRACON
Thu 06:54:34 PM 33.7333 -84.3833 90° East 262 302 8,900 -1,550 Descending Atlanta TRACON
Thu 06:55:34 PM 33.7333 -84.3000 90° East 244 281 7,200 -1,762 Descending Atlanta TRACON
Thu 06:56:40 PM 33.7000 -84.2500 129° Southeast 241 277 5,200 -1,900 Descending Atlanta TRACON
Thu 06:57:34 PM 33.6500 -84.2667 196° South 215 247 3,400 -1,632 Descending Atlanta TRACON
Thu 06:58:34 PM 33.6500 -84.3333 270° West 177 204 2,100 -1,000 Descending Atlanta TRACON
Thu 06:59:34 PM 33.6500 -84.3833 270° West 143 165 1,400 -700 Descending Atlanta TRACON
Thu 07:01:00 PM 33.6333 -84.4167 262° West  Level FlightAware Approximate

Login

Don't have an account? Register now (free) for customized features, flight alerts, and more!